sensor_id;sensor_type;location;lat;lon;timestamp;pressure;altitude;pressure_sealevel;temperature;humidity
75936;BME280;64614;32.062;34.834;2024-01-15T00:00:43;101490.41;;;22.54;48.89
75936;BME280;64614;32.062;34.834;2024-01-15T00:03:09;101509.28;;;22.56;48.75
75936;BME280;64614;32.062;34.834;2024-01-15T00:05:36;101494.59;;;22.46;48.99
75936;BME280;64614;32.062;34.834;2024-01-15T00:08:01;101496.16;;;22.52;48.52
75936;BME280;64614;32.062;34.834;2024-01-15T00:10:27;101505.44;;;22.57;48.74
75936;BME280;64614;32.062;34.834;2024-01-15T00:12:52;101502.19;;;22.54;48.88
75936;BME280;64614;32.062;34.834;2024-01-15T00:15:18;101497.81;;;22.53;48.69
75936;BME280;64614;32.062;34.834;2024-01-15T00:17:44;101492.94;;;22.50;48.62
75936;BME280;64614;32.062;34.834;2024-01-15T00:20:13;101487.97;;;22.52;49.15
75936;BME280;64614;32.062;34.834;2024-01-15T00:22:39;101499.97;;;22.57;48.82
75936;BME280;64614;32.062;34.834;2024-01-15T00:25:04;101501.91;;;22.56;48.70
75936;BME280;64614;32.062;34.834;2024-01-15T00:27:31;101507.63;;;22.60;48.96
75936;BME280;64614;32.062;34.834;2024-01-15T00:29:57;101522.09;;;22.60;49.10
75936;BME280;64614;32.062;34.834;2024-01-15T00:32:23;101518.03;;;22.58;48.81
75936;BME280;64614;32.062;34.834;2024-01-15T00:34:48;101517.47;;;22.61;48.71
75936;BME280;64614;32.062;34.834;2024-01-15T00:37:14;101518.84;;;22.58;49.13
75936;BME280;64614;32.062;34.834;2024-01-15T00:39:39;101535.50;;;22.62;48.89
75936;BME280;64614;32.062;34.834;2024-01-15T00:42:05;101518.59;;;22.54;49.07
75936;BME280;64614;32.062;34.834;2024-01-15T00:44:31;101528.41;;;22.61;49.25
75936;BME280;64614;32.062;34.834;2024-01-15T00:46:56;101527.34;;;22.57;49.30
75936;BME280;64614;32.062;34.834;2024-01-15T00:49:22;101519.69;;;22.53;49.04
75936;BME280;64614;32.062;34.834;2024-01-15T00:51:48;101540.97;;;22.62;49.09
75936;BME280;64614;32.062;34.834;2024-01-15T00:54:13;101530.31;;;22.60;49.08
75936;BME280;64614;32.062;34.834;2024-01-15T00:56:39;101528.69;;;22.59;49.32
75936;BME280;64614;32.062;34.834;2024-01-15T00:59:05;101521.34;;;22.54;49.55
75936;BME280;64614;32.062;34.834;2024-01-15T01:01:31;101527.56;;;22.60;49.59
75936;BME280;64614;32.062;34.834;2024-01-15T01:03:58;101514.47;;;22.57;49.88
75936;BME280;64614;32.062;34.834;2024-01-15T01:06:26;101532.75;;;22.62;49.70
75936;BME280;64614;32.062;34.834;2024-01-15T01:08:53;101531.19;;;22.56;49.64
75936;BME280;64614;32.062;34.834;2024-01-15T01:11:19;101527.88;;;22.59;49.65
75936;BME280;64614;32.062;34.834;2024-01-15T01:13:45;101532.75;;;22.62;49.96
75936;BME280;64614;32.062;34.834;2024-01-15T01:16:11;101530.00;;;22.62;49.64
75936;BME280;64614;32.062;34.834;2024-01-15T01:21:13;101526.19;;;22.63;49.94
75936;BME280;64614;32.062;34.834;2024-01-15T01:23:39;101511.97;;;22.61;49.95
75936;BME280;64614;32.062;34.834;2024-01-15T01:26:04;101509.81;;;22.58;50.11
75936;BME280;64614;32.062;34.834;2024-01-15T01:28:30;101515.00;;;22.59;49.91
75936;BME280;64614;32.062;34.834;2024-01-15T01:30:56;101513.13;;;22.54;49.90
75936;BME280;64614;32.062;34.834;2024-01-15T01:33:21;101515.28;;;22.58;49.90
75936;BME280;64614;32.062;34.834;2024-01-15T01:35:47;101515.81;;;22.60;49.91
75936;BME280;64614;32.062;34.834;2024-01-15T01:38:13;101512.56;;;22.58;49.85
75936;BME280;64614;32.062;34.834;2024-01-15T01:40:38;101516.09;;;22.58;50.09
75936;BME280;64614;32.062;34.834;2024-01-15T01:43:09;101520.47;;;22.59;50.06
75936;BME280;64614;32.062;34.834;2024-01-15T01:45:35;101525.13;;;22.59;49.92
75936;BME280;64614;32.062;34.834;2024-01-15T01:48:01;101525.41;;;22.57;49.83
75936;BME280;64614;32.062;34.834;2024-01-15T01:50:29;101513.34;;;22.58;49.75
75936;BME280;64614;32.062;34.834;2024-01-15T01:52:55;101519.69;;;22.53;50.12
75936;BME280;64614;32.062;34.834;2024-01-15T01:55:21;101515.59;;;22.56;49.66
75936;BME280;64614;32.062;34.834;2024-01-15T01:57:50;101507.13;;;22.52;50.06
75936;BME280;64614;32.062;34.834;2024-01-15T02:00:16;101519.66;;;22.59;49.86
75936;BME280;64614;32.062;34.834;2024-01-15T02:02:42;101520.25;;;22.56;50.01
75936;BME280;64614;32.062;34.834;2024-01-15T02:05:08;101518.03;;;22.58;49.99
75936;BME280;64614;32.062;34.834;2024-01-15T02:07:35;101516.16;;;22.53;49.72
75936;BME280;64614;32.062;34.834;2024-01-15T02:10:02;101523.19;;;22.59;49.94
75936;BME280;64614;32.062;34.834;2024-01-15T02:12:28;101518.06;;;22.52;49.78
75936;BME280;64614;32.062;34.834;2024-01-15T02:14:54;101521.34;;;22.54;49.90
75936;BME280;64614;32.062;34.834;2024-01-15T02:17:19;101514.53;;;22.52;49.68
75936;BME280;64614;32.062;34.834;2024-01-15T02:19:45;101518.59;;;22.54;49.78
75936;BME280;64614;32.062;34.834;2024-01-15T02:22:11;101523.81;;;22.56;50.07
75936;BME280;64614;32.062;34.834;2024-01-15T02:24:36;101521.88;;;22.57;49.63
75936;BME280;64614;32.062;34.834;2024-01-15T02:27:02;101518.03;;;22.58;50.09
75936;BME280;64614;32.062;34.834;2024-01-15T02:29:28;101531.19;;;22.56;49.75
75936;BME280;64614;32.062;34.834;2024-01-15T02:31:53;101528.16;;;22.57;49.94
75936;BME280;64614;32.062;34.834;2024-01-15T02:34:19;101525.19;;;22.53;50.14
75936;BME280;64614;32.062;34.834;2024-01-15T02:36:45;101525.78;;;22.50;49.98
75936;BME280;64614;32.062;34.834;2024-01-15T02:39:10;101524.69;;;22.51;49.88
75936;BME280;64614;32.062;34.834;2024-01-15T02:41:36;101531.25;;;22.50;50.14
75936;BME280;64614;32.062;34.834;2024-01-15T02:44:03;101527.69;;;22.50;49.96
75936;BME280;64614;32.062;34.834;2024-01-15T02:46:29;101538.88;;;22.53;50.06
75936;BME280;64614;32.062;34.834;2024-01-15T02:48:54;101537.81;;;22.49;50.14
75936;BME280;64614;32.062;34.834;2024-01-15T02:51:20;101540.56;;;22.49;49.83
75936;BME280;64614;32.062;34.834;2024-01-15T02:53:45;101535.63;;;22.51;50.13
75936;BME280;64614;32.062;34.834;2024-01-15T02:56:11;101538.88;;;22.53;49.66
75936;BME280;64614;32.062;34.834;2024-01-15T02:58:37;101539.47;;;22.50;49.91
75936;BME280;64614;32.062;34.834;2024-01-15T03:01:02;101550.66;;;22.54;49.89
75936;BME280;64614;32.062;34.834;2024-01-15T03:03:28;101553.38;;;22.54;49.92
75936;BME280;64614;32.062;34.834;2024-01-15T03:05:54;101537.00;;;22.49;50.04
75936;BME280;64614;32.062;34.834;2024-01-15T03:08:19;101550.97;;;22.47;50.14
75936;BME280;64614;32.062;34.834;2024-01-15T03:10:46;101555.88;;;22.50;49.42
75936;BME280;64614;32.062;34.834;2024-01-15T03:13:12;101564.91;;;22.51;50.05
75936;BME280;64614;32.062;34.834;2024-01-15T03:15:37;101580.78;;;22.49;49.98
75936;BME280;64614;32.062;34.834;2024-01-15T03:18:03;101575.91;;;22.46;49.92
75936;BME280;64614;32.062;34.834;2024-01-15T03:20:29;101588.72;;;22.50;49.96
75936;BME280;64614;32.062;34.834;2024-01-15T03:22:54;101590.63;;;22.50;49.80
75936;BME280;64614;32.062;34.834;2024-01-15T03:25:20;101596.41;;;22.48;50.18
75936;BME280;64614;32.062;34.834;2024-01-15T03:27:46;101618.00;;;22.50;50.22
75936;BME280;64614;32.062;34.834;2024-01-15T03:30:12;101614.47;;;22.49;50.25
75936;BME280;64614;32.062;34.834;2024-01-15T03:32:38;101615.88;;;22.47;49.95
75936;BME280;64614;32.062;34.834;2024-01-15T03:35:03;101621.28;;;22.52;49.98
75936;BME280;64614;32.062;34.834;2024-01-15T03:37:29;101626.47;;;22.53;50.25
75936;BME280;64614;32.062;34.834;2024-01-15T03:39:55;101631.94;;;22.53;50.55
75936;BME280;64614;32.062;34.834;2024-01-15T03:42:20;101631.44;;;22.51;49.87
75936;BME280;64614;32.062;34.834;2024-01-15T03:44:46;101640.44;;;22.52;50.23
75936;BME280;64614;32.062;34.834;2024-01-15T03:47:12;101636.03;;;22.56;50.35
75936;BME280;64614;32.062;34.834;2024-01-15T03:49:37;101634.91;;;22.57;50.07
75936;BME280;64614;32.062;34.834;2024-01-15T03:52:03;101627.06;;;22.50;50.22
75936;BME280;64614;32.062;34.834;2024-01-15T03:54:30;101625.41;;;22.49;50.53
75936;BME280;64614;32.062;34.834;2024-01-15T03:56:56;101631.44;;;22.51;50.40
75936;BME280;64614;32.062;34.834;2024-01-15T03:59:21;101627.06;;;22.50;50.19
75936;BME280;64614;32.062;34.834;2024-01-15T04:01:50;101628.72;;;22.46;50.36
75936;BME280;64614;32.062;34.834;2024-01-15T04:04:17;101626.31;;;22.40;50.21
75936;BME280;64614;32.062;34.834;2024-01-15T04:06:43;101633.66;;;22.44;50.35
75936;BME280;64614;32.062;34.834;2024-01-15T04:09:09;101629.88;;;22.40;50.04
75936;BME280;64614;32.062;34.834;2024-01-15T04:11:34;101637.53;;;22.43;50.16
75936;BME280;64614;32.062;34.834;2024-01-15T04:14:00;101641.09;;;22.38;50.57
75936;BME280;64614;32.062;34.834;2024-01-15T04:16:25;101653.94;;;22.38;50.39
75936;BME280;64614;32.062;34.834;2024-01-15T04:18:51;101663.25;;;22.37;50.25
75936;BME280;64614;32.062;34.834;2024-01-15T04:21:17;101655.34;;;22.30;49.95
75936;BME280;64614;32.062;34.834;2024-01-15T04:23:43;101660.03;;;22.30;49.96
75936;BME280;64614;32.062;34.834;2024-01-15T04:26:09;101661.13;;;22.29;50.05
75936;BME280;64614;32.062;34.834;2024-01-15T04:28:35;101667.94;;;22.31;49.78
75936;BME280;64614;32.062;34.834;2024-01-15T04:31:00;101681.69;;;22.26;49.98
75936;BME280;64614;32.062;34.834;2024-01-15T04:33:26;101692.31;;;22.28;50.06
75936;BME280;64614;32.062;34.834;2024-01-15T04:35:52;101686.59;;;22.29;50.47
75936;BME280;64614;32.062;34.834;2024-01-15T04:38:22;101695.66;;;22.25;49.99
75936;BME280;64614;32.062;34.834;2024-01-15T04:40:52;101705.50;;;22.20;50.16
75936;BME280;64614;32.062;34.834;2024-01-15T04:43:20;101711.53;;;22.22;50.14
75936;BME280;64614;32.062;34.834;2024-01-15T04:45:45;101703.56;;;22.26;49.77
75936;BME280;64614;32.062;34.834;2024-01-15T04:48:14;101706.34;;;22.21;49.72
75936;BME280;64614;32.062;34.834;2024-01-15T04:55:52;101710.78;;;22.12;49.65
75936;BME280;64614;32.062;34.834;2024-01-15T04:58:24;101704.00;;;21.99;49.71
75936;BME280;64614;32.062;34.834;2024-01-15T05:00:52;101717.94;;;22.02;49.46
75936;BME280;64614;32.062;34.834;2024-01-15T05:03:17;101717.94;;;21.97;50.00
75936;BME280;64614;32.062;34.834;2024-01-15T05:05:43;101724.00;;;21.94;49.91
75936;BME280;64614;32.062;34.834;2024-01-15T05:08:09;101712.84;;;21.80;49.64
75936;BME280;64614;32.062;34.834;2024-01-15T05:10:36;101732.50;;;21.87;49.40
75936;BME280;64614;32.062;34.834;2024-01-15T05:13:03;101715.03;;;21.73;49.64
75936;BME280;64614;32.062;34.834;2024-01-15T05:15:29;101742.63;;;21.82;49.72
75936;BME280;64614;32.062;34.834;2024-01-15T05:17:55;101740.72;;;21.82;49.19
75936;BME280;64614;32.062;34.834;2024-01-15T05:20:20;101742.94;;;21.80;49.55
75936;BME280;64614;32.062;34.834;2024-01-15T05:22:46;101741.28;;;21.74;49.15
75936;BME280;64614;32.062;34.834;2024-01-15T05:25:12;101735.03;;;21.73;49.42
75936;BME280;64614;32.062;34.834;2024-01-15T05:27:37;101734.19;;;21.73;49.02
75936;BME280;64614;32.062;34.834;2024-01-15T05:30:03;101729.28;;;21.70;49.15
75936;BME280;64614;32.062;34.834;2024-01-15T05:32:29;101724.38;;;21.67;48.93
75936;BME280;64614;32.062;34.834;2024-01-15T05:34:54;101727.66;;;21.69;49.13
75936;BME280;64614;32.062;34.834;2024-01-15T05:37:20;101724.13;;;21.63;48.93
75936;BME280;64614;32.062;34.834;2024-01-15T05:39:46;101733.66;;;21.66;48.87
75936;BME280;64614;32.062;34.834;2024-01-15T05:42:11;101733.41;;;21.67;48.96
75936;BME280;64614;32.062;34.834;2024-01-15T05:44:37;101742.97;;;21.70;48.96
75936;BME280;64614;32.062;34.834;2024-01-15T05:47:03;101752.22;;;21.74;48.46
75936;BME280;64614;32.062;34.834;2024-01-15T05:49:29;101752.81;;;21.71;48.38
75936;BME280;64614;32.062;34.834;2024-01-15T05:51:55;101766.44;;;21.76;48.71
75936;BME280;64614;32.062;34.834;2024-01-15T05:54:20;101772.75;;;21.77;48.26
75936;BME280;64614;32.062;34.834;2024-01-15T05:56:46;101790.50;;;21.74;48.54
75936;BME280;64614;32.062;34.834;2024-01-15T05:59:12;101792.44;;;21.73;48.31
75936;BME280;64614;32.062;34.834;2024-01-15T06:01:37;101802.00;;;21.76;48.22
75936;BME280;64614;32.062;34.834;2024-01-15T06:04:10;101817.31;;;21.77;48.06
75936;BME280;64614;32.062;34.834;2024-01-15T06:07:04;101807.19;;;21.72;47.89
75936;BME280;64614;32.062;34.834;2024-01-15T06:09:29;101814.56;;;21.77;48.03
75936;BME280;64614;32.062;34.834;2024-01-15T06:11:56;101816.22;;;21.78;48.10
75936;BME280;64614;32.062;34.834;2024-01-15T06:14:25;101816.22;;;21.78;48.11
75936;BME280;64614;32.062;34.834;2024-01-15T06:16:51;101824.97;;;21.75;48.12
75936;BME280;64614;32.062;34.834;2024-01-15T06:19:17;101833.16;;;21.75;47.75
75936;BME280;64614;32.062;34.834;2024-01-15T06:21:43;101814.59;;;21.72;47.81
75936;BME280;64614;32.062;34.834;2024-01-15T06:24:08;101819.22;;;21.71;47.61
75936;BME280;64614;32.062;34.834;2024-01-15T06:26:35;101825.28;;;21.68;47.50
75936;BME280;64614;32.062;34.834;2024-01-15T06:29:01;101823.09;;;21.65;47.45
75936;BME280;64614;32.062;34.834;2024-01-15T06:31:28;101829.91;;;21.68;47.63
75936;BME280;64614;32.062;34.834;2024-01-15T06:33:55;101824.19;;;21.64;47.55
75936;BME280;64614;32.062;34.834;2024-01-15T06:36:20;101823.31;;;21.74;47.58
75936;BME280;64614;32.062;34.834;2024-01-15T06:38:47;101830.44;;;21.75;47.71
75936;BME280;64614;32.062;34.834;2024-01-15T06:41:12;101833.97;;;21.81;48.00
75936;BME280;64614;32.062;34.834;2024-01-15T06:43:38;101828.78;;;21.74;47.85
75936;BME280;64614;32.062;34.834;2024-01-15T06:46:04;101837.25;;;21.83;47.88
75936;BME280;64614;32.062;34.834;2024-01-15T06:48:29;101824.41;;;21.78;47.36
75936;BME280;64614;32.062;34.834;2024-01-15T06:50:55;101823.31;;;21.74;47.56
75936;BME280;64614;32.062;34.834;2024-01-15T06:53:20;101841.88;;;21.82;47.16
75936;BME280;64614;32.062;34.834;2024-01-15T06:55:46;101836.72;;;21.75;47.31
75936;BME280;64614;32.062;34.834;2024-01-15T06:58:12;101853.38;;;21.84;47.18
75936;BME280;64614;32.062;34.834;2024-01-15T07:00:38;101854.22;;;21.80;47.62
75936;BME280;64614;32.062;34.834;2024-01-15T07:03:03;101858.84;;;21.84;47.58
75936;BME280;64614;32.062;34.834;2024-01-15T07:05:29;101869.22;;;21.82;47.50
75936;BME280;64614;32.062;34.834;2024-01-15T07:07:56;101869.81;;;21.79;47.60
75936;BME280;64614;32.062;34.834;2024-01-15T07:10:21;101874.72;;;21.82;47.44
75936;BME280;64614;32.062;34.834;2024-01-15T07:12:47;101876.91;;;21.85;47.72
75936;BME280;64614;32.062;34.834;2024-01-15T07:15:13;101892.47;;;21.90;47.32
75936;BME280;64614;32.062;34.834;2024-01-15T07:17:38;101880.72;;;21.84;47.62
75936;BME280;64614;32.062;34.834;2024-01-15T07:20:06;101886.19;;;21.89;47.80
75936;BME280;64614;32.062;34.834;2024-01-15T10:13:21;101775.66;;;22.56;46.72
75936;BME280;64614;32.062;34.834;2024-01-15T10:15:47;101765.56;;;22.51;46.77
75936;BME280;64614;32.062;34.834;2024-01-15T10:18:13;101771.53;;;22.59;46.70
75936;BME280;64614;32.062;34.834;2024-01-15T10:20:40;101753.78;;;22.51;46.57
75936;BME280;64614;32.062;34.834;2024-01-15T10:23:05;101770.94;;;22.62;46.50
75936;BME280;64614;32.062;34.834;2024-01-15T10:25:53;101775.88;;;22.65;46.35
75936;BME280;64614;32.062;34.834;2024-01-15T10:28:21;101774.50;;;22.62;46.42
75936;BME280;64614;32.062;34.834;2024-01-15T10:30:57;101761.13;;;22.56;46.43
75936;BME280;64614;32.062;34.834;2024-01-15T10:33:24;101753.22;;;22.54;46.51
75936;BME280;64614;32.062;34.834;2024-01-15T10:35:55;101766.06;;;22.59;46.52
75936;BME280;64614;32.062;34.834;2024-01-15T10:38:22;101759.00;;;22.47;46.03
75936;BME280;64614;32.062;34.834;2024-01-15T10:40:54;101765.28;;;22.53;45.77
75936;BME280;64614;32.062;34.834;2024-01-15T10:43:20;101756.28;;;22.47;45.04
75936;BME280;64614;32.062;34.834;2024-01-15T10:46:11;101752.47;;;22.38;44.58
75936;BME280;64614;32.062;34.834;2024-01-15T10:48:38;101756.41;;;22.21;43.65
75936;BME280;64614;32.062;34.834;2024-01-15T10:51:04;101752.63;;;22.12;43.66
75936;BME280;64614;32.062;34.834;2024-01-15T10:53:38;101750.47;;;22.04;43.69
75936;BME280;64614;32.062;34.834;2024-01-15T10:56:08;101747.25;;;21.91;43.16
75936;BME280;64614;32.062;34.834;2024-01-15T10:58:36;101727.63;;;21.79;43.21
75936;BME280;64614;32.062;34.834;2024-01-15T11:01:03;101735.31;;;21.67;43.92
75936;BME280;64614;32.062;34.834;2024-01-15T11:03:30;101750.59;;;21.73;44.22
75936;BME280;64614;32.062;34.834;2024-01-15T11:05:55;101752.22;;;21.74;44.79
75936;BME280;64614;32.062;34.834;2024-01-15T11:08:21;101740.19;;;21.75;44.66
75936;BME280;64614;32.062;34.834;2024-01-15T11:10:50;101750.59;;;21.78;45.08
75936;BME280;64614;32.062;34.834;2024-01-15T11:16:04;101737.72;;;21.79;45.07
75936;BME280;64614;32.062;34.834;2024-01-15T11:18:34;101737.44;;;21.85;45.31
75936;BME280;64614;32.062;34.834;2024-01-15T11:23:59;101760.31;;;22.00;45.79
75936;BME280;64614;32.062;34.834;2024-01-15T11:26:30;101749.13;;;22.01;45.61
75936;BME280;64614;32.062;34.834;2024-01-15T11:28:57;101733.31;;;21.93;45.61
75936;BME280;64614;32.062;34.834;2024-01-15T11:34:11;101753.22;;;22.04;45.87
75936;BME280;64614;32.062;34.834;2024-01-15T11:42:01;101755.66;;;22.11;45.83
75936;BME280;64614;32.062;34.834;2024-01-15T11:44:27;101749.34;;;22.15;45.73
75936;BME280;64614;32.062;34.834;2024-01-15T11:47:02;101758.34;;;22.16;46.18
75936;BME280;64614;32.062;34.834;2024-01-15T11:50:05;101755.00;;;22.24;45.84
75936;BME280;64614;32.062;34.834;2024-01-15T11:52:36;101748.97;;;22.27;45.83
75936;BME280;64614;32.062;34.834;2024-01-15T11:55:11;101740.47;;;22.29;45.86
75936;BME280;64614;32.062;34.834;2024-01-15T11:57:47;101748.13;;;22.32;45.95
75936;BME280;64614;32.062;34.834;2024-01-15T12:00:15;101745.41;;;22.32;45.46
75936;BME280;64614;32.062;34.834;2024-01-15T12:02:45;101749.28;;;22.26;46.10
75936;BME280;64614;32.062;34.834;2024-01-15T12:05:17;101759.09;;;22.27;45.73
75936;BME280;64614;32.062;34.834;2024-01-15T12:07:44;101761.28;;;22.30;45.86
75936;BME280;64614;32.062;34.834;2024-01-15T12:10:15;101766.22;;;22.28;46.10
75936;BME280;64614;32.062;34.834;2024-01-15T12:13:00;101773.56;;;22.32;45.75
75936;BME280;64614;32.062;34.834;2024-01-15T12:15:30;101776.59;;;22.31;45.87
75936;BME280;64614;32.062;34.834;2024-01-15T12:17:58;101757.19;;;22.27;46.13
75936;BME280;64614;32.062;34.834;2024-01-15T12:20:30;101772.75;;;22.32;46.12
75936;BME280;64614;32.062;34.834;2024-01-15T12:22:57;101767.84;;;22.34;46.04
75936;BME280;64614;32.062;34.834;2024-01-15T12:25:23;101771.13;;;22.31;46.09
75936;BME280;64614;32.062;34.834;2024-01-15T12:27:50;101768.63;;;22.34;46.21
75936;BME280;64614;32.062;34.834;2024-01-15T12:30:16;101774.13;;;22.34;45.81
75936;BME280;64614;32.062;34.834;2024-01-15T12:32:42;101759.88;;;22.32;45.87
75936;BME280;64614;32.062;34.834;2024-01-15T12:35:10;101768.94;;;22.33;46.05
75936;BME280;64614;32.062;34.834;2024-01-15T12:37:38;101768.94;;;22.33;45.88
75936;BME280;64614;32.062;34.834;2024-01-15T12:40:04;101763.72;;;22.36;45.88
75936;BME280;64614;32.062;34.834;2024-01-15T12:42:32;101770.00;;;22.37;45.91
75936;BME280;64614;32.062;34.834;2024-01-15T12:44:58;101768.94;;;22.33;45.88
75936;BME280;64614;32.062;34.834;2024-01-15T12:47:25;101772.47;;;22.38;46.33
75936;BME280;64614;32.062;34.834;2024-01-15T12:49:54;101764.25;;;22.38;46.22
75936;BME280;64614;32.062;34.834;2024-01-15T12:52:21;101776.81;;;22.45;46.14
75936;BME280;64614;32.062;34.834;2024-01-15T12:54:51;101775.19;;;22.38;46.13
75936;BME280;64614;32.062;34.834;2024-01-15T12:57:16;101771.63;;;22.38;45.87
75936;BME280;64614;32.062;34.834;2024-01-15T12:59:46;101772.19;;;22.40;46.05
75936;BME280;64614;32.062;34.834;2024-01-15T13:02:12;101776.56;;;22.36;46.19
75936;BME280;64614;32.062;34.834;2024-01-15T13:04:38;101780.94;;;22.37;45.96
75936;BME280;64614;32.062;34.834;2024-01-15T13:07:05;101782.31;;;22.34;46.39
75936;BME280;64614;32.062;34.834;2024-01-15T13:09:32;101787.50;;;22.36;46.05
75936;BME280;64614;32.062;34.834;2024-01-15T13:11:58;101786.94;;;22.39;46.38
75936;BME280;64614;32.062;34.834;2024-01-15T13:14:23;101791.88;;;22.37;46.11
75936;BME280;64614;32.062;34.834;2024-01-15T13:16:52;101788.91;;;22.33;46.04
75936;BME280;64614;32.062;34.834;2024-01-15T13:19:20;101799.00;;;22.38;46.27
75936;BME280;64614;32.062;34.834;2024-01-15T13:21:47;101799.28;;;22.36;46.23
75936;BME280;64614;32.062;34.834;2024-01-15T13:24:13;101786.16;;;22.38;46.11
75936;BME280;64614;32.062;34.834;2024-01-15T13:26:41;101790.53;;;22.40;45.82
75936;BME280;64614;32.062;34.834;2024-01-15T13:29:06;101796.53;;;22.42;46.31
75936;BME280;64614;32.062;34.834;2024-01-15T13:31:33;101808.03;;;22.44;46.09
75936;BME280;64614;32.062;34.834;2024-01-15T13:33:59;101802.31;;;22.40;45.78
75936;BME280;64614;32.062;34.834;2024-01-15T13:36:26;101804.75;;;22.47;46.13
75936;BME280;64614;32.062;34.834;2024-01-15T13:38:53;101789.69;;;22.44;45.61
75936;BME280;64614;32.062;34.834;2024-01-15T13:41:22;101794.06;;;22.45;45.89
75936;BME280;64614;32.062;34.834;2024-01-15T13:43:50;101800.13;;;22.42;45.87
75936;BME280;64614;32.062;34.834;2024-01-15T13:46:18;101791.88;;;22.37;45.31
75936;BME280;64614;32.062;34.834;2024-01-15T13:48:44;101793.56;;;22.33;45.65
75936;BME280;64614;32.062;34.834;2024-01-15T13:51:10;101791.66;;;22.28;45.29
75936;BME280;64614;32.062;34.834;2024-01-15T13:53:38;101794.13;;;22.30;45.40
75936;BME280;64614;32.062;34.834;2024-01-15T13:56:04;101797.66;;;22.30;45.38
75936;BME280;64614;32.062;34.834;2024-01-15T13:58:30;101807.81;;;22.30;45.57
75936;BME280;64614;32.062;34.834;2024-01-15T14:00:56;101793.91;;;22.21;45.46
75936;BME280;64614;32.062;34.834;2024-01-15T14:03:22;101785.16;;;22.19;45.36
75936;BME280;64614;32.062;34.834;2024-01-15T14:05:47;101800.19;;;22.21;45.63
75936;BME280;64614;32.062;34.834;2024-01-15T14:08:13;101809.47;;;22.26;45.72
75936;BME280;64614;32.062;34.834;2024-01-15T14:10:40;101806.19;;;22.23;45.72
75936;BME280;64614;32.062;34.834;2024-01-15T14:13:05;101800.19;;;22.21;45.85
75936;BME280;64614;32.062;34.834;2024-01-15T14:15:31;101803.22;;;22.20;45.30
75936;BME280;64614;32.062;34.834;2024-01-15T14:17:57;101808.13;;;22.18;45.57
75936;BME280;64614;32.062;34.834;2024-01-15T14:20:23;101811.16;;;22.16;45.53
75936;BME280;64614;32.062;34.834;2024-01-15T14:22:49;101808.44;;;22.16;45.37
75936;BME280;64614;32.062;34.834;2024-01-15T14:25:14;101811.72;;;22.13;45.27
75936;BME280;64614;32.062;34.834;2024-01-15T14:27:40;101828.09;;;22.18;45.48
75936;BME280;64614;32.062;34.834;2024-01-15T14:30:06;101811.16;;;22.16;45.55
75936;BME280;64614;32.062;34.834;2024-01-15T14:32:34;101803.50;;;22.13;45.20
75936;BME280;64614;32.062;34.834;2024-01-15T14:34:59;101807.06;;;22.09;45.62
75936;BME280;64614;32.062;34.834;2024-01-15T14:37:25;101816.09;;;22.14;45.32
75936;BME280;64614;32.062;34.834;2024-01-15T14:39:51;101803.53;;;22.08;45.50
75936;BME280;64614;32.062;34.834;2024-01-15T14:42:19;101805.44;;;22.07;45.55
75936;BME280;64614;32.062;34.834;2024-01-15T14:44:44;101810.09;;;22.07;45.38
75936;BME280;64614;32.062;34.834;2024-01-15T14:47:10;101804.63;;;22.07;45.36
75936;BME280;64614;32.062;34.834;2024-01-15T14:49:35;101813.94;;;22.06;45.34
75936;BME280;64614;32.062;34.834;2024-01-15T14:52:02;101819.13;;;22.07;45.54
75936;BME280;64614;32.062;34.834;2024-01-15T14:54:28;101811.75;;;22.08;45.36
75936;BME280;64614;32.062;34.834;2024-01-15T14:56:53;101812.84;;;22.02;45.49
75936;BME280;64614;32.062;34.834;2024-01-15T14:59:19;101821.03;;;22.07;45.60
75936;BME280;64614;32.062;34.834;2024-01-15T15:01:45;101818.56;;;22.05;45.53
75936;BME280;64614;32.062;34.834;2024-01-15T15:04:11;101817.00;;;21.94;45.78
75936;BME280;64614;32.062;34.834;2024-01-15T15:06:36;101826.56;;;21.97;45.77
75936;BME280;64614;32.062;34.834;2024-01-15T15:09:03;101823.56;;;21.93;45.81
75936;BME280;64614;32.062;34.834;2024-01-15T15:11:34;101824.66;;;21.92;45.58
75936;BME280;64614;32.062;34.834;2024-01-15T15:14:00;101819.72;;;21.94;46.13
75936;BME280;64614;32.062;34.834;2024-01-15T15:16:26;101827.94;;;21.94;45.88
75936;BME280;64614;32.062;34.834;2024-01-15T15:18:53;101833.66;;;21.92;45.88
75936;BME280;64614;32.062;34.834;2024-01-15T15:21:20;101837.22;;;21.88;46.00
75936;BME280;64614;32.062;34.834;2024-01-15T15:23:46;101838.31;;;21.87;45.67
75936;BME280;64614;32.062;34.834;2024-01-15T15:26:13;101850.34;;;21.91;46.13
75936;BME280;64614;32.062;34.834;2024-01-15T15:28:38;101845.16;;;21.84;45.81
75936;BME280;64614;32.062;34.834;2024-01-15T15:31:05;101854.72;;;21.87;45.80
75936;BME280;64614;32.062;34.834;2024-01-15T15:33:34;101860.75;;;21.89;45.83
75936;BME280;64614;32.062;34.834;2024-01-15T15:35:59;101867.06;;;21.84;46.10
75936;BME280;64614;32.062;34.834;2024-01-15T15:38:33;101867.06;;;21.84;46.01
75936;BME280;64614;32.062;34.834;2024-01-15T15:40:59;101876.91;;;21.85;46.08
75936;BME280;64614;32.062;34.834;2024-01-15T15:43:29;101867.88;;;21.80;45.71
75936;BME280;64614;32.062;34.834;2024-01-15T15:45:55;101866.81;;;21.75;45.90
75936;BME280;64614;32.062;34.834;2024-01-15T15:48:23;101873.09;;;21.81;46.00
75936;BME280;64614;32.062;34.834;2024-01-15T15:50:50;101880.16;;;21.82;45.79